createdAt,value
2019-05-19T00:00:07.005Z,91.63
2019-05-19T00:02:35.481Z,92.42
2019-05-19T00:05:05.862Z,93.18
2019-05-19T00:07:34.386Z,92.87
2019-05-19T00:10:03.328Z,93.27
2019-05-19T00:12:31.683Z,93.82
2019-05-19T00:15:00.123Z,94.03
2019-05-19T00:17:28.546Z,94.08
2019-05-19T00:19:57.034Z,94.09
2019-05-19T00:22:25.459Z,93.27
2019-05-19T00:24:53.888Z,93.86
2019-05-19T00:27:22.300Z,93.90
2019-05-19T00:29:50.717Z,93.81
2019-05-19T00:32:19.228Z,93.89
2019-05-19T00:34:47.684Z,94.01
2019-05-19T00:37:16.119Z,94.00
2019-05-19T00:39:44.515Z,93.98
2019-05-19T00:42:12.937Z,94.01
2019-05-19T00:44:41.369Z,93.95
2019-05-19T00:47:09.948Z,93.88
2019-05-19T00:49:41.498Z,93.96
2019-05-19T00:52:08.858Z,93.92
2019-05-19T00:54:37.271Z,93.57
2019-05-19T00:57:06.525Z,93.63
2019-05-19T00:59:35.676Z,93.75
2019-05-19T01:02:04.217Z,93.81
2019-05-19T01:04:32.649Z,93.86
2019-05-19T01:07:01.251Z,93.83
2019-05-19T01:09:29.694Z,94.02
2019-05-19T01:11:58.486Z,93.89
2019-05-19T01:14:26.974Z,93.95
2019-05-19T01:16:55.404Z,93.70
2019-05-19T01:19:23.803Z,94.02
2019-05-19T01:21:52.266Z,94.09
2019-05-19T01:24:20.702Z,94.22
2019-05-19T01:26:49.090Z,94.29
2019-05-19T01:29:17.502Z,94.20
2019-05-19T01:31:46.057Z,94.32
2019-05-19T01:34:14.469Z,94.19
2019-05-19T01:36:42.898Z,94.37
2019-05-19T01:39:11.371Z,94.07
2019-05-19T01:41:39.872Z,94.20
2019-05-19T01:44:08.284Z,94.38
2019-05-19T01:46:36.716Z,94.56
2019-05-19T01:49:05.184Z,94.55
2019-05-19T01:51:33.629Z,94.55
2019-05-19T01:54:02.050Z,94.30
2019-05-19T01:56:30.476Z,94.13
2019-05-19T01:58:58.879Z,94.66
2019-05-19T02:01:27.369Z,94.51
2019-05-19T02:03:55.841Z,94.73
2019-05-19T02:06:24.360Z,94.79
2019-05-19T02:08:52.782Z,94.83
2019-05-19T02:11:21.176Z,94.98
2019-05-19T02:13:49.582Z,95.45
2019-05-19T02:16:18.008Z,95.40
2019-05-19T02:18:46.428Z,95.51
2019-05-19T02:21:14.888Z,95.56
2019-05-19T02:23:43.313Z,95.50
2019-05-19T02:26:11.791Z,95.33
2019-05-19T02:28:40.225Z,95.25
2019-05-19T02:31:08.694Z,94.88
2019-05-19T02:33:37.190Z,94.81
2019-05-19T02:36:05.595Z,95.07
2019-05-19T02:38:34.054Z,95.28
2019-05-19T02:41:04.789Z,95.46
2019-05-19T02:43:34.431Z,95.45
2019-05-19T02:46:05.019Z,95.47
2019-05-19T02:48:34.460Z,95.40
2019-05-19T02:51:04.495Z,95.28
2019-05-19T02:53:33.371Z,95.08
2019-05-19T02:56:03.209Z,94.96
2019-05-19T02:58:32.645Z,94.89
2019-05-19T03:01:01.096Z,94.66
2019-05-19T03:03:29.563Z,94.62
2019-05-19T03:05:57.982Z,94.52
2019-05-19T03:08:26.390Z,94.48
2019-05-19T03:10:54.894Z,94.26
2019-05-19T03:13:23.302Z,94.29
2019-05-19T03:15:51.712Z,94.67
2019-05-19T03:18:20.114Z,94.52
2019-05-19T03:20:48.648Z,94.21
2019-05-19T03:23:17.075Z,94.29
2019-05-19T03:25:45.572Z,94.28
2019-05-19T03:28:13.976Z,94.21
2019-05-19T03:30:59.424Z,94.77
2019-05-19T03:33:29.463Z,94.56
2019-05-19T03:35:57.944Z,94.59
2019-05-19T03:38:26.382Z,94.65
2019-05-19T03:40:54.873Z,95.07
2019-05-19T03:43:23.298Z,95.36
2019-05-19T03:45:51.702Z,95.53
2019-05-19T03:48:20.192Z,95.40
2019-05-19T03:50:48.716Z,95.18
2019-05-19T03:53:17.180Z,94.92
2019-05-19T03:55:45.591Z,95.40
2019-05-19T03:58:14.069Z,95.37
2019-05-19T04:00:42.681Z,95.30
2019-05-19T04:03:11.152Z,95.23
2019-05-19T04:05:39.581Z,95.12
2019-05-19T04:08:08.050Z,94.77
2019-05-19T04:10:36.536Z,94.77
2019-05-19T04:13:05.021Z,94.85
2019-05-19T04:15:33.520Z,94.81
2019-05-19T04:18:01.952Z,95.13
2019-05-19T04:20:30.393Z,95.69
2019-05-19T04:22:58.884Z,95.75
2019-05-19T04:25:27.471Z,95.67
2019-05-19T04:27:55.858Z,95.64
2019-05-19T04:30:24.354Z,95.68
2019-05-19T04:32:52.796Z,95.49
2019-05-19T04:35:21.274Z,95.61
2019-05-19T04:37:49.685Z,95.64
2019-05-19T04:40:18.136Z,95.44
2019-05-19T04:42:46.544Z,95.50
2019-05-19T04:45:15.115Z,95.44
2019-05-19T04:47:43.557Z,95.30
2019-05-19T04:50:12.291Z,94.56
2019-05-19T04:52:40.706Z,94.85
2019-05-19T04:55:09.451Z,95.21
2019-05-19T04:57:37.935Z,95.66
2019-05-19T05:00:07.202Z,95.61
2019-05-19T05:02:35.759Z,95.39
2019-05-19T05:05:05.632Z,95.82
2019-05-19T05:07:34.039Z,96.13
2019-05-19T05:10:02.527Z,96.22
2019-05-19T05:12:30.929Z,96.06
2019-05-19T05:14:59.359Z,96.37
2019-05-19T05:17:27.887Z,96.29
2019-05-19T05:19:56.303Z,96.83
2019-05-19T05:22:24.762Z,97.04
2019-05-19T05:24:53.203Z,97.06
2019-05-19T05:27:21.607Z,96.66
2019-05-19T05:29:50.014Z,96.44
2019-05-19T05:32:18.459Z,96.78
2019-05-19T05:34:46.865Z,97.10
2019-05-19T05:37:15.277Z,97.16
2019-05-19T05:39:43.701Z,96.95
2019-05-19T05:42:12.216Z,96.47
2019-05-19T05:44:40.650Z,96.65
2019-05-19T05:47:09.081Z,96.80
2019-05-19T05:49:37.485Z,97.10
2019-05-19T05:52:05.958Z,97.23
2019-05-19T05:54:34.386Z,97.18
2019-05-19T05:57:02.856Z,97.06
2019-05-19T05:59:31.289Z,97.15
2019-05-19T06:01:59.695Z,97.36
2019-05-19T06:04:28.199Z,97.63
2019-05-19T06:06:56.732Z,97.63
2019-05-19T06:09:25.143Z,97.81
2019-05-19T06:11:53.555Z,97.92
2019-05-19T06:14:22.035Z,97.93
2019-05-19T06:16:50.476Z,97.31
2019-05-19T06:19:18.909Z,97.40
2019-05-19T06:21:47.317Z,97.54
2019-05-19T06:24:15.809Z,97.70
2019-05-19T06:26:44.219Z,97.88
2019-05-19T06:29:12.648Z,98.17
2019-05-19T06:31:41.170Z,98.23
2019-05-19T06:34:09.688Z,98.20
2019-05-19T06:36:38.087Z,98.32
2019-05-19T06:39:06.857Z,98.36
2019-05-19T06:41:35.305Z,98.08
2019-05-19T06:44:04.262Z,97.86
2019-05-19T06:46:32.700Z,97.98
2019-05-19T06:49:01.197Z,98.04
2019-05-19T06:51:29.604Z,97.37
2019-05-19T06:53:58.029Z,96.73
2019-05-19T06:56:26.567Z,96.67
2019-05-19T06:58:55.002Z,96.56
2019-05-19T07:01:23.432Z,95.27
2019-05-19T07:03:51.925Z,94.96
2019-05-19T07:06:20.422Z,94.86
2019-05-19T07:08:48.866Z,95.56
2019-05-19T07:11:17.293Z,96.20
2019-05-19T07:13:45.808Z,96.55
2019-05-19T07:16:14.207Z,96.57
2019-05-19T07:18:42.611Z,96.94
2019-05-19T07:21:11.129Z,96.27
2019-05-19T07:23:39.589Z,95.39
2019-05-19T07:26:08.045Z,94.91
2019-05-19T07:28:36.481Z,95.54
2019-05-19T07:31:04.902Z,95.32
2019-05-19T07:33:33.496Z,95.20
2019-05-19T07:36:01.928Z,95.47
2019-05-19T07:38:30.383Z,95.18
2019-05-19T07:40:58.880Z,94.47
2019-05-19T07:43:27.347Z,94.91
2019-05-19T07:45:55.831Z,94.24
2019-05-19T07:48:24.257Z,94.01
2019-05-19T07:50:52.686Z,94.65
2019-05-19T07:53:21.110Z,94.01
2019-05-19T07:55:49.604Z,94.22
2019-05-19T07:58:18.191Z,94.59
2019-05-19T08:00:46.597Z,94.72
2019-05-19T08:03:15.074Z,94.91
2019-05-19T08:05:43.515Z,95.16
2019-05-19T08:08:12.064Z,94.99
2019-05-19T08:10:40.488Z,94.07
2019-05-19T08:13:08.895Z,93.30
2019-05-19T08:15:37.437Z,93.21
2019-05-19T08:18:06.002Z,93.03
2019-05-19T08:20:34.408Z,92.93
2019-05-19T08:23:02.914Z,93.17
2019-05-19T08:25:31.533Z,92.97
2019-05-19T08:28:08.554Z,92.43
2019-05-19T08:30:30.257Z,92.09
2019-05-19T08:32:58.665Z,89.38
2019-05-19T08:35:27.144Z,89.46
2019-05-19T08:37:55.665Z,89.93
2019-05-19T08:40:24.137Z,90.27
2019-05-19T08:42:52.658Z,90.04
2019-05-19T08:45:21.260Z,89.92
2019-05-19T08:47:49.653Z,90.99
2019-05-19T08:50:18.133Z,90.07
2019-05-19T08:52:46.565Z,90.46
2019-05-19T08:55:15.049Z,90.51
2019-05-19T08:57:43.515Z,90.43
2019-05-19T09:00:12.372Z,90.60
2019-05-19T09:02:40.834Z,88.59
2019-05-19T09:05:10.172Z,89.59
2019-05-19T09:07:38.723Z,88.15
2019-05-19T09:10:10.921Z,87.66
2019-05-19T09:12:39.533Z,89.36
2019-05-19T09:15:08.565Z,85.32
2019-05-19T09:17:36.989Z,85.12
2019-05-19T09:20:06.261Z,83.83
2019-05-19T09:22:34.733Z,82.85
2019-05-19T09:25:03.877Z,79.30
2019-05-19T09:27:32.321Z,82.61
2019-05-19T09:30:00.740Z,79.97
2019-05-19T09:32:29.176Z,77.94
2019-05-19T09:34:57.694Z,77.28
2019-05-19T09:37:26.097Z,73.54
2019-05-19T09:39:54.532Z,76.38
2019-05-19T09:42:22.991Z,77.06
2019-05-19T09:44:51.536Z,71.36
2019-05-19T09:47:19.904Z,72.41
2019-05-19T09:49:48.461Z,74.34
2019-05-19T09:52:17.296Z,74.31
2019-05-19T09:54:46.147Z,73.03
2019-05-19T09:57:14.733Z,70.81
2019-05-19T09:59:43.148Z,73.86
2019-05-19T10:02:11.809Z,74.38
2019-05-19T10:04:40.248Z,74.30
2019-05-19T10:07:09.265Z,76.03
2019-05-19T10:09:47.620Z,78.09
2019-05-19T10:12:16.025Z,77.39
2019-05-19T10:14:44.514Z,74.27
2019-05-19T10:17:12.963Z,73.89
2019-05-19T10:19:41.392Z,75.04
2019-05-19T10:22:09.841Z,70.96
2019-05-19T10:24:38.248Z,70.45
2019-05-19T10:27:06.806Z,73.40
2019-05-19T10:29:35.252Z,73.11
2019-05-19T10:32:03.734Z,71.32
2019-05-19T10:34:32.275Z,72.47
2019-05-19T10:37:00.702Z,68.80
2019-05-19T10:39:29.098Z,68.64
2019-05-19T10:41:57.523Z,68.74
2019-05-19T10:44:26.016Z,68.72
2019-05-19T10:46:54.494Z,67.10
2019-05-19T10:49:23.011Z,69.19
2019-05-19T10:51:51.426Z,69.04
2019-05-19T10:54:19.885Z,71.08
2019-05-19T10:56:48.414Z,71.66
2019-05-19T10:59:16.893Z,70.79
2019-05-19T11:01:45.372Z,72.09
2019-05-19T11:04:13.796Z,67.92
2019-05-19T11:06:42.216Z,67.36
2019-05-19T11:09:10.673Z,69.64
2019-05-19T11:11:39.098Z,67.31
2019-05-19T11:14:07.678Z,67.53
2019-05-19T11:16:36.078Z,66.85
2019-05-19T11:19:04.616Z,67.59
2019-05-19T11:21:33.150Z,68.66
2019-05-19T11:24:01.565Z,70.52
2019-05-19T11:26:30.024Z,66.92
2019-05-19T11:28:58.520Z,63.02
2019-05-19T11:31:26.942Z,65.62
2019-05-19T11:33:55.522Z,64.33
2019-05-19T11:36:23.980Z,66.17
2019-05-19T11:38:52.410Z,64.97
2019-05-19T11:41:20.830Z,63.14
2019-05-19T11:43:49.315Z,59.65
2019-05-19T11:46:17.721Z,61.31
2019-05-19T11:48:46.221Z,61.15
2019-05-19T11:51:14.636Z,61.36
2019-05-19T11:53:43.019Z,57.67
2019-05-19T11:56:11.780Z,60.07
2019-05-19T11:58:40.439Z,58.96
2019-05-19T12:01:08.892Z,60.62
2019-05-19T12:03:37.302Z,59.33
2019-05-19T12:06:05.727Z,57.65
2019-05-19T12:08:34.171Z,59.06
2019-05-19T12:11:02.587Z,59.25
2019-05-19T12:13:31.005Z,55.03
2019-05-19T12:15:59.410Z,53.05
2019-05-19T12:18:27.853Z,51.74
2019-05-19T12:20:56.285Z,51.58
2019-05-19T12:23:24.676Z,55.80
2019-05-19T12:25:53.116Z,57.82
2019-05-19T12:28:21.552Z,52.98
2019-05-19T12:30:49.955Z,47.23
2019-05-19T12:33:18.433Z,48.37
2019-05-19T12:35:46.834Z,48.00
2019-05-19T12:38:15.259Z,43.68
2019-05-19T12:40:43.689Z,45.81
2019-05-19T12:43:12.216Z,44.64
2019-05-19T12:45:40.671Z,41.98
2019-05-19T12:48:09.037Z,47.80
2019-05-19T12:50:37.500Z,49.19
2019-05-19T12:53:05.996Z,47.30
2019-05-19T12:55:34.640Z,46.24
2019-05-19T12:58:03.126Z,46.90
2019-05-19T13:00:31.678Z,46.50
2019-05-19T13:03:00.100Z,48.02
2019-05-19T13:05:28.577Z,46.34
2019-05-19T13:07:57.065Z,46.84
2019-05-19T13:10:25.479Z,45.43
2019-05-19T13:12:53.950Z,43.62
2019-05-19T13:15:23.641Z,47.30
2019-05-19T13:17:52.395Z,51.04
2019-05-19T13:20:20.962Z,50.66
2019-05-19T13:22:49.495Z,50.94
2019-05-19T13:25:18.046Z,50.03
2019-05-19T13:27:46.470Z,50.88
2019-05-19T13:30:15.121Z,51.95
2019-05-19T13:32:43.619Z,49.79
2019-05-19T13:35:12.365Z,52.07
2019-05-19T13:37:40.856Z,52.64
2019-05-19T13:40:10.061Z,53.82
2019-05-19T13:42:38.540Z,54.96
2019-05-19T13:45:07.509Z,53.85
2019-05-19T13:47:35.987Z,54.68
2019-05-19T13:50:06.538Z,55.46
2019-05-19T13:52:35.020Z,52.50
2019-05-19T13:55:04.649Z,52.80
2019-05-19T13:57:33.175Z,53.20
2019-05-19T14:00:01.534Z,52.14
2019-05-19T14:02:30.049Z,53.07
2019-05-19T14:04:58.441Z,55.09
2019-05-19T14:07:52.024Z,54.35
2019-05-19T14:10:20.531Z,56.16
2019-05-19T14:12:48.934Z,58.31
2019-05-19T14:15:17.488Z,57.55
2019-05-19T14:17:45.916Z,57.45
2019-05-19T14:20:14.442Z,58.03
2019-05-19T14:22:42.864Z,57.95
2019-05-19T14:25:11.562Z,58.29
2019-05-19T14:27:39.944Z,58.59
2019-05-19T14:30:09.631Z,57.41
2019-05-19T14:32:38.029Z,56.56
2019-05-19T14:35:07.800Z,56.17
2019-05-19T14:37:36.275Z,58.17
2019-05-19T14:40:06.325Z,57.30
2019-05-19T14:42:42.395Z,57.40
2019-05-19T14:45:11.341Z,57.81
2019-05-19T14:47:39.748Z,57.81
2019-05-19T14:50:08.836Z,56.91
2019-05-19T14:52:37.260Z,58.36
2019-05-19T14:55:06.425Z,56.77
2019-05-19T14:57:44.440Z,55.93
2019-05-19T15:00:06.162Z,57.50
2019-05-19T15:02:35.225Z,58.68
2019-05-19T15:05:04.237Z,58.16
2019-05-19T15:07:32.640Z,58.71
2019-05-19T15:10:01.065Z,56.54
2019-05-19T15:12:29.663Z,57.61
2019-05-19T15:14:58.090Z,58.42
2019-05-19T15:17:26.575Z,58.02
2019-05-19T15:19:55.009Z,57.47
2019-05-19T15:22:23.500Z,58.14
2019-05-19T15:24:51.987Z,58.11
2019-05-19T15:27:20.400Z,56.57
2019-05-19T15:29:48.836Z,58.14
2019-05-19T15:32:17.258Z,58.44
2019-05-19T15:34:45.676Z,58.49
2019-05-19T15:37:14.077Z,54.21
2019-05-19T15:39:42.519Z,54.56
2019-05-19T15:42:11.014Z,52.70
2019-05-19T15:44:39.495Z,54.92
2019-05-19T15:47:07.984Z,55.86
2019-05-19T15:49:36.410Z,53.00
2019-05-19T15:52:06.029Z,52.69
2019-05-19T15:54:34.961Z,53.18
2019-05-19T15:57:03.463Z,53.15
2019-05-19T15:59:31.877Z,55.03
2019-05-19T16:02:00.334Z,56.54
2019-05-19T16:04:28.818Z,58.25
2019-05-19T16:06:57.418Z,59.45
2019-05-19T16:09:25.824Z,59.96
2019-05-19T16:11:54.227Z,59.84
2019-05-19T16:14:22.738Z,59.77
2019-05-19T16:16:51.143Z,59.57
2019-05-19T16:19:19.589Z,59.63
2019-05-19T16:21:48.098Z,60.01
2019-05-19T16:24:16.555Z,59.25
2019-05-19T16:26:44.984Z,59.75
2019-05-19T16:29:13.371Z,60.69
2019-05-19T16:31:41.793Z,58.78
2019-05-19T16:34:10.174Z,58.24
2019-05-19T16:36:38.596Z,58.80
2019-05-19T16:39:07.865Z,61.51
2019-05-19T16:41:36.266Z,60.39
2019-05-19T16:44:04.916Z,60.05
2019-05-19T16:46:33.397Z,58.92
2019-05-19T16:49:01.892Z,59.37
2019-05-19T16:51:30.611Z,58.49
2019-05-19T16:54:00.674Z,58.71
2019-05-19T16:56:29.147Z,59.47
2019-05-19T16:58:57.557Z,60.31
2019-05-19T17:01:26.000Z,58.75
2019-05-19T17:03:54.409Z,59.02
2019-05-19T17:06:22.902Z,59.61
2019-05-19T17:08:51.311Z,60.45
2019-05-19T17:11:19.739Z,60.05
2019-05-19T17:13:48.242Z,60.18
2019-05-19T17:16:16.634Z,61.39
2019-05-19T17:18:45.061Z,60.01
2019-05-19T17:21:13.480Z,62.17
2019-05-19T17:23:41.903Z,61.57
2019-05-19T17:26:10.360Z,61.61
2019-05-19T17:28:38.918Z,62.84
2019-05-19T17:31:07.878Z,62.47
2019-05-19T17:33:36.381Z,62.56
2019-05-19T17:36:04.929Z,61.85
2019-05-19T17:38:33.466Z,63.14
2019-05-19T17:41:01.885Z,63.89
2019-05-19T17:43:30.360Z,64.77
2019-05-19T17:45:58.794Z,63.19
2019-05-19T17:48:27.289Z,64.85
2019-05-19T17:50:55.783Z,65.09
2019-05-19T17:53:24.269Z,64.75
2019-05-19T17:55:54.474Z,64.89
2019-05-19T17:58:23.890Z,64.79
2019-05-19T18:00:52.373Z,65.82
2019-05-19T18:03:21.385Z,65.93
2019-05-19T18:05:49.845Z,66.69
2019-05-19T18:08:18.309Z,67.78
2019-05-19T18:10:46.747Z,69.49
2019-05-19T18:13:15.221Z,68.37
2019-05-19T18:15:43.692Z,71.44
2019-05-19T18:18:12.160Z,68.46
2019-05-19T18:20:40.657Z,67.24
2019-05-19T18:23:09.162Z,69.33
2019-05-19T18:25:37.576Z,71.41
2019-05-19T18:28:06.172Z,71.98
2019-05-19T18:30:34.727Z,71.40
2019-05-19T18:33:03.277Z,69.47
2019-05-19T18:35:31.705Z,69.43
2019-05-19T18:38:00.129Z,69.96
2019-05-19T18:40:28.576Z,71.07
2019-05-19T18:42:57.056Z,71.72
2019-05-19T18:45:25.479Z,72.69
2019-05-19T18:47:53.909Z,72.16
2019-05-19T18:50:22.383Z,71.98
2019-05-19T18:52:50.842Z,72.50
2019-05-19T18:55:19.261Z,73.28
2019-05-19T18:57:47.668Z,72.89
2019-05-19T19:00:19.153Z,73.61
2019-05-19T19:02:48.098Z,74.15
2019-05-19T19:05:16.761Z,75.02
2019-05-19T19:07:55.287Z,75.21
2019-05-19T19:10:23.697Z,73.55
2019-05-19T19:12:52.176Z,74.68
2019-05-19T19:15:20.673Z,74.08
2019-05-19T19:17:49.074Z,75.33
2019-05-19T19:20:17.675Z,76.37
2019-05-19T19:22:46.071Z,76.23
2019-05-19T19:25:14.669Z,77.17
2019-05-19T19:27:43.096Z,76.81
2019-05-19T19:30:11.655Z,76.29
2019-05-19T19:32:40.124Z,76.29
2019-05-19T19:35:09.369Z,77.27
2019-05-19T19:37:37.777Z,78.00
2019-05-19T19:40:07.354Z,76.34
2019-05-19T19:42:35.833Z,76.87
2019-05-19T19:45:04.927Z,77.74
2019-05-19T19:47:33.413Z,78.58
2019-05-19T19:50:01.836Z,79.11
2019-05-19T19:52:30.320Z,79.80
2019-05-19T19:54:58.743Z,80.15
2019-05-19T19:57:27.158Z,80.39
2019-05-19T19:59:55.564Z,80.33
2019-05-19T20:02:23.987Z,80.42
2019-05-19T20:04:52.385Z,80.53
2019-05-19T20:07:20.790Z,80.45
2019-05-19T20:09:49.217Z,80.55
2019-05-19T20:12:17.623Z,80.19
2019-05-19T20:14:46.197Z,80.23
2019-05-19T20:17:14.633Z,80.72
2019-05-19T20:19:43.096Z,80.41
2019-05-19T20:22:11.583Z,80.56
2019-05-19T20:24:40.095Z,80.63
2019-05-19T20:27:08.581Z,80.94
2019-05-19T20:29:37.011Z,81.71
2019-05-19T20:32:05.428Z,81.84
2019-05-19T20:34:33.844Z,81.91
2019-05-19T20:37:02.257Z,81.82
2019-05-19T20:39:30.795Z,81.48
2019-05-19T20:41:59.186Z,81.29
2019-05-19T20:44:27.658Z,81.66
2019-05-19T20:46:56.108Z,81.43
2019-05-19T20:49:24.547Z,81.03
2019-05-19T20:51:53.344Z,81.00
2019-05-19T20:54:21.796Z,81.85
2019-05-19T20:56:50.209Z,81.75
2019-05-19T20:59:18.696Z,81.47
2019-05-19T21:01:47.127Z,81.99
2019-05-19T21:04:15.531Z,81.42
2019-05-19T21:06:43.981Z,82.00
2019-05-19T21:09:12.423Z,81.99
2019-05-19T21:11:40.788Z,82.50
2019-05-19T21:14:09.247Z,82.37
2019-05-19T21:16:37.665Z,82.92
2019-05-19T21:19:06.081Z,82.43
2019-05-19T21:21:34.586Z,82.91
2019-05-19T21:24:03.010Z,82.68
2019-05-19T21:26:31.438Z,82.83
2019-05-19T21:28:59.849Z,83.85
2019-05-19T21:31:28.310Z,83.76
2019-05-19T21:33:56.725Z,84.00
2019-05-19T21:36:25.140Z,84.18
2019-05-19T21:38:53.571Z,84.37
2019-05-19T21:41:22.002Z,84.83
2019-05-19T21:43:50.483Z,84.83
2019-05-19T21:46:18.907Z,84.71
2019-05-19T21:48:47.344Z,84.52
2019-05-19T21:51:15.766Z,84.45
2019-05-19T21:53:44.169Z,85.13
2019-05-19T21:56:12.593Z,84.79
2019-05-19T21:58:41.012Z,85.22
2019-05-19T22:01:22.231Z,85.09
2019-05-19T22:03:39.797Z,85.16
2019-05-19T22:06:08.247Z,85.26
2019-05-19T22:08:37.557Z,85.09
2019-05-19T22:11:05.982Z,85.75
2019-05-19T22:13:34.457Z,86.08
2019-05-19T22:16:12.312Z,85.91
2019-05-19T22:18:33.090Z,85.76
2019-05-19T22:21:01.489Z,86.39
2019-05-19T22:23:29.919Z,86.60
2019-05-19T22:25:58.312Z,86.36
2019-05-19T22:28:26.804Z,86.38
2019-05-19T22:30:55.198Z,86.18
2019-05-19T22:33:23.871Z,86.51
2019-05-19T22:35:52.288Z,86.67
2019-05-19T22:38:20.772Z,86.12
2019-05-19T22:40:49.225Z,86.66
2019-05-19T22:43:17.640Z,86.14
2019-05-19T22:45:46.057Z,85.71
2019-05-19T22:48:14.487Z,85.54
2019-05-19T22:50:42.895Z,85.31
2019-05-19T22:53:11.370Z,84.94
2019-05-19T22:55:39.828Z,85.44
2019-05-19T22:58:08.237Z,85.55
2019-05-19T23:00:36.724Z,85.94
2019-05-19T23:03:05.311Z,85.58
2019-05-19T23:05:33.829Z,85.21
2019-05-19T23:08:02.240Z,84.97
2019-05-19T23:10:30.734Z,87.16
2019-05-19T23:12:59.218Z,87.20
2019-05-19T23:15:27.616Z,87.44
2019-05-19T23:17:56.054Z,87.60
2019-05-19T23:20:24.448Z,87.46
2019-05-19T23:22:52.848Z,87.49
2019-05-19T23:25:21.263Z,86.63
2019-05-19T23:27:49.762Z,86.28
2019-05-19T23:30:18.406Z,86.93
2019-05-19T23:32:46.820Z,87.37
2019-05-19T23:35:15.457Z,86.90
2019-05-19T23:37:43.891Z,86.73
2019-05-19T23:40:12.622Z,86.47
2019-05-19T23:42:41.112Z,85.57
2019-05-19T23:45:09.669Z,86.25
2019-05-19T23:47:38.068Z,85.95
2019-05-19T23:50:06.837Z,85.88
2019-05-19T23:52:35.308Z,85.65
2019-05-19T23:55:05.473Z,84.64
2019-05-19T23:57:33.876Z,84.91
